Time;durP1;ratioP1;P1;durP2;ratioP2;P2;SDS_P1;SDS_P2;PMS_P1;PMS_P2;Temp;Humidity;BMP_temperature;BMP_pressure;BME280_temperature;BME280_humidity;BME280_pressure;Samples;Min_cycle;Max_cycle;Signal;HPM_P1;HPM_P2
2022/02/27 00:02:08;;;;;;;3.60;1.38;;;;;;;26.22;28.50;97857.00;5005677;28;20032;-29
2022/02/27 00:04:34;;;;;;;3.88;1.60;;;;;;;26.22;28.49;97857.88;5002846;28;20063;-31
2022/02/27 00:06:59;;;;;;;2.72;1.50;;;;;;;26.22;28.47;97854.38;5004177;28;20029;-30
2022/02/27 00:09:25;;;;;;;2.15;1.08;;;;;;;26.22;28.59;97849.13;5001921;28;21452;-28
2022/02/27 00:11:50;;;;;;;1.92;1.13;;;;;;;26.22;28.55;97844.75;4999920;28;20044;-29
2022/02/27 00:14:16;;;;;;;2.35;1.30;;;;;;;26.22;28.67;97846.50;5001326;28;20037;-30
2022/02/27 00:16:41;;;;;;;5.90;2.10;;;;;;;26.20;28.36;97845.72;5005232;28;20034;-29
2022/02/27 00:19:06;;;;;;;3.38;1.50;;;;;;;26.20;28.28;97845.72;5001095;28;20029;-27
2022/02/27 00:21:32;;;;;;;2.35;1.52;;;;;;;26.20;28.64;97850.97;5002094;28;20033;-28
2022/02/27 00:23:57;;;;;;;2.70;1.40;;;;;;;26.20;28.59;97848.34;5006318;28;20036;-28
2022/02/27 00:26:23;;;;;;;8.25;1.17;;;;;;;26.19;28.53;97846.59;5013411;28;20563;-29
2022/02/27 00:28:48;;;;;;;3.60;1.58;;;;;;;26.19;28.60;97843.97;5013633;28;20029;-29
2022/02/27 00:31:13;;;;;;;3.00;1.20;;;;;;;26.18;28.62;97844.91;5009299;28;20083;-27
2022/02/27 00:33:39;;;;;;;3.90;1.88;;;;;;;26.18;28.57;97842.28;5007860;28;20100;-30
2022/02/27 00:36:05;;;;;;;2.00;1.20;;;;;;;26.18;28.57;97843.13;5010477;28;20033;-30
2022/02/27 00:38:30;;;;;;;2.45;1.40;;;;;;;26.17;28.75;97841.44;5007365;28;20135;-28
2022/02/27 00:40:56;;;;;;;2.70;1.30;;;;;;;26.18;28.56;97850.16;5004952;28;20502;-38
2022/02/27 00:43:21;;;;;;;4.00;1.55;;;;;;;26.18;28.72;97847.53;5007835;28;20033;-28
2022/02/27 00:45:47;;;;;;;2.80;1.50;;;;;;;26.17;28.53;97845.81;5003497;28;20044;-29
2022/02/27 00:48:12;;;;;;;5.40;1.60;;;;;;;26.17;28.53;97848.44;5005294;28;20034;-28
2022/02/27 00:50:38;;;;;;;4.88;1.48;;;;;;;26.16;28.58;97846.75;5001903;28;20135;-31
2022/02/27 00:53:03;;;;;;;2.33;1.23;;;;;;;26.17;28.79;97851.06;5004883;28;20052;-29
2022/02/27 00:55:28;;;;;;;4.45;1.50;;;;;;;26.16;28.54;97849.38;5009625;28;20092;-27
2022/02/27 00:57:54;;;;;;;3.92;1.27;;;;;;;26.17;28.65;97851.06;5011991;28;20029;-28
2022/02/27 01:00:19;;;;;;;2.78;1.63;;;;;;;26.15;28.74;97847.63;5010207;28;20571;-27
2022/02/27 01:02:45;;;;;;;2.63;1.48;;;;;;;26.15;28.57;97848.50;5010363;28;20045;-28
2022/02/27 01:05:10;;;;;;;2.70;1.02;;;;;;;26.15;28.54;97843.25;5010924;28;20045;-28
2022/02/27 01:07:36;;;;;;;3.97;1.60;;;;;;;26.15;28.55;97842.38;4991673;28;20574;-29
2022/02/27 01:10:01;;;;;;;2.42;1.10;;;;;;;26.15;28.70;97848.50;4989641;28;20075;-29
2022/02/27 01:12:26;;;;;;;2.88;1.33;;;;;;;26.15;28.47;97834.50;4989914;28;20026;-28
2022/02/27 01:14:52;;;;;;;3.75;1.27;;;;;;;26.15;28.55;97839.75;5009131;28;20223;-29
2022/02/27 01:17:17;;;;;;;4.38;1.20;;;;;;;26.14;28.52;97840.69;5009325;28;20029;-27
2022/02/27 01:19:43;;;;;;;3.88;1.58;;;;;;;26.14;28.48;97845.94;5013203;28;20029;-29
2022/02/27 01:22:08;;;;;;;2.85;1.33;;;;;;;26.14;28.74;97840.69;5011841;28;20029;-28
2022/02/27 01:24:34;;;;;;;1.90;1.20;;;;;;;26.13;28.53;97838.97;5007714;28;20131;-29
2022/02/27 01:26:59;;;;;;;2.50;1.30;;;;;;;26.12;28.55;97834.63;5002438;28;20033;-29
2022/02/27 01:29:24;;;;;;;2.28;1.50;;;;;;;26.13;28.53;97838.97;5006387;28;20056;-28
2022/02/27 01:31:50;;;;;;;3.58;1.40;;;;;;;26.10;28.61;97822.41;5004828;28;20056;-29
2022/02/27 01:34:15;;;;;;;3.42;1.35;;;;;;;26.10;28.56;97830.28;5006488;28;20221;-28
2022/02/27 01:36:41;;;;;;;2.55;1.35;;;;;;;26.11;28.66;97825.88;5005027;28;20148;-28
2022/02/27 01:39:06;;;;;;;2.50;1.20;;;;;;;26.12;28.51;97832.00;5001446;28;20021;-29
2022/02/27 01:41:31;;;;;;;2.08;1.20;;;;;;;26.11;28.63;97823.25;4998493;28;20744;-29
2022/02/27 01:43:57;;;;;;;2.60;1.35;;;;;;;26.12;28.60;97818.88;5001661;28;20033;-28
2022/02/27 01:46:22;;;;;;;2.42;1.45;;;;;;;26.11;28.50;97823.25;4997764;28;20427;-29
2022/02/27 01:48:48;;;;;;;3.33;1.40;;;;;;;26.11;28.67;97823.25;4998277;28;20030;-28
2022/02/27 01:51:13;;;;;;;3.03;1.33;;;;;;;26.10;28.68;97818.94;4997637;28;20036;-29
2022/02/27 01:53:39;;;;;;;2.00;1.10;;;;;;;26.09;28.65;97807.56;4997629;28;20857;-28
2022/02/27 01:56:04;;;;;;;2.10;1.20;;;;;;;26.09;28.53;97807.56;4997645;28;20056;-27
2022/02/27 01:58:30;;;;;;;1.40;1.10;;;;;;;26.09;28.53;97804.94;5000667;28;20395;-28
2022/02/27 02:00:59;;;;;;;3.30;1.38;;;;;;;26.09;28.52;97807.56;4995208;28;20347;-33
2022/02/27 02:03:25;;;;;;;2.20;1.30;;;;;;;26.08;28.56;97800.59;4998578;28;20030;-29
2022/02/27 02:05:50;;;;;;;3.28;1.13;;;;;;;26.08;28.66;97805.84;4997014;28;20059;-27
2022/02/27 02:08:15;;;;;;;1.55;1.10;;;;;;;26.08;28.52;97800.59;4996845;28;20087;-29
2022/02/27 02:10:41;;;;;;;2.13;1.58;;;;;;;26.07;28.62;97804.16;4998847;28;20022;-28
2022/02/27 02:13:07;;;;;;;6.70;1.38;;;;;;;26.08;28.56;97808.47;4981613;28;20033;-29
2022/02/27 02:15:32;;;;;;;2.97;1.40;;;;;;;26.08;28.37;97805.84;4996732;28;20666;-28
2022/02/27 02:17:58;;;;;;;3.38;1.30;;;;;;;26.07;28.62;97798.91;4998515;28;20040;-28
2022/02/27 02:20:23;;;;;;;2.30;1.30;;;;;;;26.08;28.52;97805.84;4999768;28;20033;-28
2022/02/27 02:22:49;;;;;;;2.80;1.20;;;;;;;26.07;28.63;97804.16;4998750;28;20056;-29
2022/02/27 02:25:14;;;;;;;2.50;1.35;;;;;;;26.07;28.62;97798.91;4997667;28;20764;-28
2022/02/27 02:27:40;;;;;;;2.95;1.17;;;;;;;26.05;28.51;97803.34;4998183;28;20033;-30
2022/02/27 02:30:09;;;;;;;2.85;1.35;;;;;;;26.07;28.59;97803.28;5000042;28;20109;-28
2022/02/27 02:32:44;;;;;;;2.88;1.58;;;;;;;26.06;28.64;97802.44;4998761;28;20451;-29
2022/02/27 02:35:10;;;;;;;2.03;1.10;;;;;;;26.05;28.56;97805.97;4997081;28;20038;-26
2022/02/27 02:37:35;;;;;;;1.80;1.02;;;;;;;26.06;28.60;97785.81;4998634;28;20037;-29
2022/02/27 02:40:01;;;;;;;3.00;1.20;;;;;;;26.05;28.63;97789.38;4997713;28;20038;-28
2022/02/27 02:42:26;;;;;;;2.92;1.48;;;;;;;26.05;28.50;97789.38;4997356;28;20079;-27
2022/02/27 02:44:51;;;;;;;2.55;1.75;;;;;;;26.03;28.61;97789.41;4997907;28;20036;-30
2022/02/27 02:47:17;;;;;;;2.22;1.27;;;;;;;26.04;28.68;97788.50;4996955;28;20021;-28
2022/02/27 02:49:42;;;;;;;1.83;1.00;;;;;;;26.03;28.56;97785.91;4999222;28;20025;-28
2022/02/27 02:52:08;;;;;;;2.47;1.23;;;;;;;26.03;28.50;97781.53;4999517;28;21176;-28
2022/02/27 02:54:33;;;;;;;2.60;1.40;;;;;;;26.02;28.62;97779.84;4999912;28;20998;-30
2022/02/27 02:56:58;;;;;;;2.15;1.13;;;;;;;26.03;28.50;97776.28;4982290;28;20035;-27
2022/02/27 02:59:24;;;;;;;2.05;1.38;;;;;;;26.03;28.49;97776.28;4997473;28;20460;-29
2022/02/27 03:01:50;;;;;;;2.03;1.00;;;;;;;26.02;28.49;97779.84;4996451;28;20029;-28
2022/02/27 03:04:15;;;;;;;1.80;1.10;;;;;;;26.03;28.54;97772.78;4997090;28;20090;-28
2022/02/27 03:06:41;;;;;;;2.22;1.30;;;;;;;26.03;28.47;97775.41;4997381;28;20029;-29
2022/02/27 03:09:06;;;;;;;1.75;1.15;;;;;;;26.01;28.47;97772.84;5005116;28;20121;-30
2022/02/27 03:11:33;;;;;;;2.47;1.48;;;;;;;26.01;28.52;97778.09;5000963;28;20030;-28
2022/02/27 03:14:00;;;;;;;1.73;1.02;;;;;;;26.00;28.53;97771.13;5000477;28;20526;-28
2022/02/27 03:16:26;;;;;;;1.98;1.02;;;;;;;26.00;28.57;97765.06;5000246;28;21560;-29
2022/02/27 03:18:52;;;;;;;2.63;1.05;;;;;;;25.99;28.36;97761.56;4981434;28;20033;-27
2022/02/27 03:21:17;;;;;;;2.33;1.10;;;;;;;26.00;28.46;97765.88;5001730;28;20604;-27
2022/02/27 03:23:42;;;;;;;1.52;1.15;;;;;;;25.99;28.46;97769.44;5003029;28;20499;-30
2022/02/27 03:26:08;;;;;;;2.10;1.00;;;;;;;25.98;28.54;97767.72;4999245;28;20123;-27
2022/02/27 03:28:33;;;;;;;2.03;1.00;;;;;;;25.98;28.59;97751.09;5001476;28;20029;-29
2022/02/27 03:30:59;;;;;;;1.77;1.38;;;;;;;25.95;28.42;97765.22;5004100;28;20041;-27
2022/02/27 03:33:24;;;;;;;2.30;1.15;;;;;;;25.97;28.43;97773.88;4999541;28;20048;-30
2022/02/27 03:35:49;;;;;;;1.73;1.15;;;;;;;25.97;28.54;97766.00;5003875;28;20040;-31
2022/02/27 03:38:15;;;;;;;1.88;1.10;;;;;;;25.96;28.55;97759.91;5001511;28;20042;-28
2022/02/27 03:40:40;;;;;;;7.05;1.30;;;;;;;25.96;28.46;97764.28;5002621;28;20087;-29
2022/02/27 03:43:06;;;;;;;3.55;1.30;;;;;;;25.96;28.43;97766.91;4999560;28;20033;-25
2022/02/27 03:45:31;;;;;;;1.20;1.00;;;;;;;25.95;28.61;97767.84;5001041;28;20052;-27
2022/02/27 03:47:57;;;;;;;1.25;1.00;;;;;;;25.95;28.44;97768.72;5006786;28;20037;-28
2022/02/27 03:50:22;;;;;;;2.33;1.13;;;;;;;25.95;28.37;97767.84;5003393;28;20103;-29
2022/02/27 03:52:48;;;;;;;1.77;1.10;;;;;;;25.94;28.41;97766.13;4999634;28;20333;-30
2022/02/27 03:55:14;;;;;;;1.80;1.00;;;;;;;25.95;28.48;97773.09;4999300;28;20029;-28
2022/02/27 03:57:40;;;;;;;1.83;1.23;;;;;;;25.94;28.44;97761.72;4985985;28;20514;-28
2022/02/27 04:00:09;;;;;;;1.90;1.13;;;;;;;25.94;28.48;97766.97;5001242;28;20044;-30
2022/02/27 04:02:34;;;;;;;1.95;1.30;;;;;;;25.94;28.40;97766.97;4997507;28;20564;-28
2022/02/27 04:04:59;;;;;;;1.60;1.10;;;;;;;25.93;28.43;97774.94;5002284;28;20037;-29
2022/02/27 04:07:25;;;;;;;1.15;0.98;;;;;;;25.93;28.53;97767.91;4999600;28;20059;-28
2022/02/27 04:09:50;;;;;;;2.00;1.17;;;;;;;25.93;28.49;97772.31;5002074;28;20415;-29
2022/02/27 04:12:16;;;;;;;1.42;0.90;;;;;;;25.93;28.46;97782.81;4999450;28;20037;-27
2022/02/27 04:14:41;;;;;;;1.23;0.98;;;;;;;25.92;28.36;97778.44;4999941;28;20032;-30
2022/02/27 04:17:06;;;;;;;1.80;1.25;;;;;;;25.93;28.32;97790.69;4998861;28;20033;-28
2022/02/27 04:19:32;;;;;;;2.78;1.20;;;;;;;25.93;28.38;97790.69;4997858;28;20086;-28
2022/02/27 04:21:57;;;;;;;2.03;1.30;;;;;;;25.92;28.40;97787.19;4999974;28;20408;-29
2022/02/27 04:24:23;;;;;;;2.33;1.30;;;;;;;25.92;28.36;97788.97;5001230;28;20052;-28
2022/02/27 04:26:51;;;;;;;1.95;1.30;;;;;;;25.91;28.45;97788.13;4998116;28;20033;-28
2022/02/27 04:29:16;;;;;;;2.28;1.08;;;;;;;25.92;28.38;97786.34;4996357;28;20120;-28
2022/02/27 04:31:42;;;;;;;2.20;1.17;;;;;;;25.91;28.37;97789.88;5005332;28;20040;-28
2022/02/27 04:34:07;;;;;;;1.38;0.90;;;;;;;25.90;28.52;97791.63;5004323;28;20029;-28
2022/02/27 04:36:33;;;;;;;2.28;1.15;;;;;;;25.89;28.47;97784.69;5004471;28;20555;-29
2022/02/27 04:38:58;;;;;;;2.28;1.13;;;;;;;25.90;28.37;97782.91;5005103;28;20033;-29
2022/02/27 04:41:23;;;;;;;2.45;1.30;;;;;;;25.90;28.46;97780.28;5005572;28;20037;-28
2022/02/27 04:43:49;;;;;;;1.52;1.05;;;;;;;25.89;28.44;97784.69;5005291;28;20052;-28
2022/02/27 04:46:14;;;;;;;1.13;1.02;;;;;;;25.88;28.43;97776.84;5002952;28;20040;-27
2022/02/27 04:48:40;;;;;;;1.58;0.90;;;;;;;25.88;28.37;97782.97;5000441;28;20025;-29
2022/02/27 04:51:05;;;;;;;1.30;1.02;;;;;;;25.88;28.59;97777.72;4998474;28;20584;-27
2022/02/27 04:53:30;;;;;;;1.52;0.93;;;;;;;25.88;28.34;97789.97;4998544;28;20049;-28
2022/02/27 04:55:56;;;;;;;1.88;0.93;;;;;;;25.87;28.15;97783.03;4999300;28;20057;-28
2022/02/27 04:58:21;;;;;;;1.60;0.90;;;;;;;25.87;28.48;97788.28;5000677;28;20037;-31
2022/02/27 05:00:47;;;;;;;1.60;0.98;;;;;;;25.86;28.43;97783.94;4969232;28;20037;-28
2022/02/27 05:03:12;;;;;;;1.95;1.00;;;;;;;25.87;28.44;97789.16;5010579;28;22218;-31
2022/02/27 05:05:37;;;;;;;1.27;0.98;;;;;;;25.87;28.44;97796.16;5011549;28;20029;-27
2022/02/27 05:08:03;;;;;;;1.60;0.98;;;;;;;25.85;28.38;97792.75;4989064;28;20025;-29
2022/02/27 05:10:28;;;;;;;1.17;0.93;;;;;;;25.86;28.25;97789.19;5010525;28;20544;-30
2022/02/27 05:12:54;;;;;;;1.33;0.90;;;;;;;25.85;28.40;97793.59;4991567;28;20037;-29
2022/02/27 05:15:19;;;;;;;1.80;1.00;;;;;;;25.86;28.39;97794.44;5011345;28;20026;-29
2022/02/27 05:17:45;;;;;;;1.25;0.95;;;;;;;25.86;28.33;97789.19;5010301;28;20025;-30
2022/02/27 05:20:11;;;;;;;1.88;1.00;;;;;;;25.84;28.35;97781.38;5013196;28;20567;-29
2022/02/27 05:22:41;;;;;;;1.42;1.00;;;;;;;25.84;28.42;97786.63;5015241;28;20095;-29
2022/02/27 05:25:06;;;;;;;1.90;1.15;;;;;;;25.83;28.36;97791.00;5011112;28;20523;-29
2022/02/27 05:27:32;;;;;;;1.38;0.85;;;;;;;25.83;28.52;97795.44;5010022;28;20031;-28
2022/02/27 05:29:57;;;;;;;1.05;0.68;;;;;;;25.82;28.38;97799.81;5011481;28;20033;-29
2022/02/27 05:32:23;;;;;;;1.80;1.00;;;;;;;25.82;28.49;97802.44;5009452;28;20056;-28
2022/02/27 05:34:48;;;;;;;1.23;0.90;;;;;;;25.83;28.47;97805.94;5008064;28;20036;-30
2022/02/27 05:37:13;;;;;;;2.80;1.27;;;;;;;25.82;28.35;97802.44;4992725;28;20404;-27
2022/02/27 05:39:39;;;;;;;1.17;0.85;;;;;;;25.82;28.53;97807.69;5007993;28;20041;-29
2022/02/27 05:42:04;;;;;;;1.70;1.05;;;;;;;25.82;28.53;97806.84;5006177;28;20053;-28
2022/02/27 05:44:30;;;;;;;1.25;0.80;;;;;;;25.82;28.42;97801.59;5002855;28;20065;-28
2022/02/27 05:46:55;;;;;;;1.10;0.77;;;;;;;25.81;28.49;97802.47;4998503;28;20037;-29
2022/02/27 05:49:21;;;;;;;3.03;1.15;;;;;;;25.81;28.39;97813.00;4997265;28;20533;-28
2022/02/27 05:51:47;;;;;;;2.08;1.00;;;;;;;25.80;28.42;97803.41;4999309;28;20155;-30
2022/02/27 05:54:13;;;;;;;1.58;1.00;;;;;;;25.81;28.36;97807.75;4997239;28;20096;-29
2022/02/27 05:56:38;;;;;;;1.27;0.80;;;;;;;25.80;28.32;97809.53;4999339;28;20021;-29
2022/02/27 05:59:04;;;;;;;3.08;1.20;;;;;;;25.80;28.29;97809.53;5002475;28;20166;-28
2022/02/27 06:01:29;;;;;;;1.48;1.10;;;;;;;25.80;28.50;97806.91;5002764;28;20026;-28
2022/02/27 06:03:55;;;;;;;1.73;1.17;;;;;;;25.80;28.43;97812.16;5001738;28;20424;-28
2022/02/27 06:06:20;;;;;;;1.52;0.90;;;;;;;25.79;28.33;97813.06;5003605;28;20586;-27
2022/02/27 06:08:45;;;;;;;1.90;0.77;;;;;;;25.79;28.55;97814.84;5000446;28;20037;-31
2022/02/27 06:11:11;;;;;;;2.20;1.30;;;;;;;25.80;28.46;97814.78;5002802;28;20018;-28
2022/02/27 06:13:36;;;;;;;4.38;0.93;;;;;;;25.79;28.29;97820.94;5002611;28;20090;-28
2022/02/27 06:16:02;;;;;;;1.83;1.08;;;;;;;25.79;28.36;97823.56;5000927;28;20026;-32
2022/02/27 06:18:27;;;;;;;1.92;1.10;;;;;;;25.79;28.34;97828.81;4984078;28;20036;-29
2022/02/27 06:20:52;;;;;;;2.60;1.10;;;;;;;25.79;28.47;97834.06;4999977;28;20429;-28
2022/02/27 06:23:18;;;;;;;2.22;1.08;;;;;;;25.79;28.30;97834.06;5003336;28;20030;-28
2022/02/27 06:25:43;;;;;;;1.65;1.00;;;;;;;25.79;28.45;97841.97;4999720;28;20575;-28
2022/02/27 06:28:09;;;;;;;2.42;1.02;;;;;;;25.79;28.27;97841.97;5000769;28;20037;-29
2022/02/27 06:30:34;;;;;;;1.90;1.00;;;;;;;25.79;28.42;97844.56;5000721;28;20037;-30
2022/02/27 06:33:00;;;;;;;1.58;1.00;;;;;;;25.79;28.25;97847.19;4997164;28;20026;-27
2022/02/27 06:35:26;;;;;;;1.95;1.05;;;;;;;25.80;28.31;97855.91;4999795;28;20151;-30
2022/02/27 06:37:53;;;;;;;1.33;1.00;;;;;;;25.80;28.25;97853.28;4999521;28;20470;-29
2022/02/27 06:40:18;;;;;;;2.30;1.05;;;;;;;25.80;28.31;97846.28;5002301;28;20128;-28
2022/02/27 06:42:43;;;;;;;1.55;1.00;;;;;;;25.81;28.38;97850.63;4986802;28;20643;-28
2022/02/27 06:45:09;;;;;;;3.88;1.23;;;;;;;25.81;28.25;97840.13;5006582;28;20021;-28
2022/02/27 06:47:35;;;;;;;2.38;1.17;;;;;;;25.80;28.16;97838.41;5005846;28;20068;-28
2022/02/27 06:50:00;;;;;;;1.25;0.95;;;;;;;25.81;28.33;97844.50;5008279;28;20041;-30
2022/02/27 06:52:26;;;;;;;1.52;1.00;;;;;;;25.81;28.39;97850.63;5005233;28;20037;-28
2022/02/27 06:54:51;;;;;;;1.15;0.90;;;;;;;25.82;28.23;97848.88;5006993;28;20029;-28
2022/02/27 06:57:17;;;;;;;1.23;0.90;;;;;;;25.83;28.22;97854.03;5003283;28;20476;-29
2022/02/27 06:59:42;;;;;;;1.05;0.80;;;;;;;25.83;28.18;97859.28;5004661;28;20116;-28
2022/02/27 07:02:08;;;;;;;1.95;1.00;;;;;;;25.84;28.27;97854.91;5005942;28;21494;-27
2022/02/27 07:04:33;;;;;;;1.48;1.10;;;;;;;25.85;28.27;97861.00;5007151;28;20468;-28
2022/02/27 07:06:59;;;;;;;5.63;1.98;;;;;;;25.85;28.05;97861.00;5004013;28;20038;-29
2022/02/27 07:09:24;;;;;;;5.50;2.35;;;;;;;25.84;27.51;97854.91;5010590;28;20040;-29
2022/02/27 07:11:50;;;;;;;6.70;1.60;;;;;;;25.82;27.60;97856.75;5007308;28;20722;-29
2022/02/27 07:14:15;;;;;;;9.77;2.60;;;;;;;25.83;27.68;97858.44;5002038;28;21344;-27
2022/02/27 07:16:40;;;;;;;12.05;3.85;;;;;;;25.83;27.73;97863.69;4999073;28;20043;-29
2022/02/27 07:19:06;;;;;;;10.10;3.83;;;;;;;25.83;27.95;97864.53;5000666;28;20044;-29
2022/02/27 07:21:31;;;;;;;12.15;3.45;;;;;;;25.86;28.07;97867.97;5005986;28;20036;-27
2022/02/27 07:23:57;;;;;;;12.02;2.80;;;;;;;25.86;27.90;97858.34;5000790;28;20138;-30
2022/02/27 07:26:23;;;;;;;10.60;3.50;;;;;;;25.88;28.00;97863.50;4983183;28;20033;-27
2022/02/27 07:28:48;;;;;;;7.75;3.17;;;;;;;25.89;28.01;97862.63;5001892;28;20030;-27
2022/02/27 07:31:14;;;;;;;10.07;3.38;;;;;;;25.91;28.17;97863.41;5005555;28;20030;-29
2022/02/27 07:33:39;;;;;;;6.45;2.80;;;;;;;25.93;28.18;97858.97;4996238;28;20450;-29
2022/02/27 07:36:04;;;;;;;7.35;3.03;;;;;;;25.95;28.15;97862.38;5002049;28;20029;-30
2022/02/27 07:38:30;;;;;;;7.10;2.92;;;;;;;25.96;28.08;97869.34;5005957;28;20274;-29
2022/02/27 07:40:55;;;;;;;11.05;3.60;;;;;;;25.98;28.14;97864.91;5003171;28;20033;-28
2022/02/27 07:43:21;;;;;;;7.97;3.22;;;;;;;25.99;27.96;97869.25;5007215;28;20772;-29
2022/02/27 07:45:46;;;;;;;7.95;3.60;;;;;;;26.03;28.08;97870.84;5007921;28;20029;-27
2022/02/27 07:48:13;;;;;;;10.35;3.60;;;;;;;26.05;28.05;97876.88;5006369;28;20056;-29
2022/02/27 07:50:39;;;;;;;8.75;3.60;;;;;;;26.07;28.11;97877.69;5006465;28;20147;-28
2022/02/27 07:53:04;;;;;;;11.40;4.00;;;;;;;26.11;28.16;97881.06;5008082;28;20022;-29
2022/02/27 07:55:30;;;;;;;7.90;3.50;;;;;;;26.13;28.11;97886.25;5005610;28;20033;-30
2022/02/27 07:57:55;;;;;;;32.22;4.82;;;;;;;26.16;28.21;97886.16;5006288;28;20327;-31
2022/02/27 08:00:20;;;;;;;13.18;3.50;;;;;;;26.17;28.06;97887.84;5004224;28;20484;-29
2022/02/27 08:02:46;;;;;;;14.70;4.13;;;;;;;26.19;28.17;97891.28;5007974;28;20399;-27
2022/02/27 08:05:11;;;;;;;35.05;3.95;;;;;;;26.20;28.41;97893.00;5007729;28;20535;-29
2022/02/27 08:07:37;;;;;;;14.95;3.03;;;;;;;26.23;28.15;97892.88;5005776;28;20040;-26
2022/02/27 08:10:02;;;;;;;14.32;3.13;;;;;;;26.25;28.15;97888.44;5014457;28;20036;-30
2022/02/27 08:12:28;;;;;;;14.43;2.97;;;;;;;26.28;27.97;97885.69;5015898;28;20090;-28
2022/02/27 08:14:53;;;;;;;9.23;3.25;;;;;;;26.30;28.04;97886.50;5014409;28;20095;-30
2022/02/27 08:17:19;;;;;;;6.85;2.95;;;;;;;26.34;27.92;97887.25;5013818;28;20693;-28
2022/02/27 08:19:45;;;;;;;11.13;3.00;;;;;;;26.35;28.00;97884.56;5014761;28;20025;-27
2022/02/27 08:22:10;;;;;;;8.07;3.17;;;;;;;26.39;28.04;97887.09;5014440;28;20026;-29
2022/02/27 08:24:36;;;;;;;13.50;2.78;;;;;;;26.40;27.99;97886.16;5016701;28;20570;-30
2022/02/27 08:27:01;;;;;;;13.40;2.90;;;;;;;26.42;27.90;97892.19;5014025;28;20253;-27
2022/02/27 08:29:27;;;;;;;8.27;2.30;;;;;;;26.45;27.94;97899.97;5016076;28;20039;-31
2022/02/27 08:31:52;;;;;;;19.00;2.80;;;;;;;26.47;27.94;97906.03;5014969;28;20033;-29
2022/02/27 08:34:17;;;;;;;14.63;2.67;;;;;;;26.48;27.87;97887.56;5015125;28;20033;-27
2022/02/27 08:36:43;;;;;;;13.85;2.53;;;;;;;26.51;27.80;97894.50;5015268;28;20036;-27
2022/02/27 08:39:09;;;;;;;14.23;2.92;;;;;;;26.52;27.64;97893.56;5014480;28;20384;-28
2022/02/27 08:41:36;;;;;;;18.00;3.78;;;;;;;26.52;26.53;97893.56;5005356;28;20033;-27
2022/02/27 08:44:01;;;;;;;17.58;3.03;;;;;;;26.52;26.89;97901.47;5004961;28;20037;-28
2022/02/27 08:46:27;;;;;;;14.20;2.42;;;;;;;26.54;26.96;97891.72;5005471;28;20017;-27
2022/02/27 08:48:52;;;;;;;15.35;2.97;;;;;;;26.55;27.00;97897.84;4989240;28;20022;-28
2022/02/27 08:51:18;;;;;;;12.40;2.65;;;;;;;26.57;26.74;97899.50;5005896;28;20025;-27
2022/02/27 08:53:43;;;;;;;8.25;2.13;;;;;;;26.58;26.81;97895.94;5006280;28;20029;-27
2022/02/27 08:56:09;;;;;;;6.50;2.20;;;;;;;26.61;26.82;97908.13;5003521;28;20022;-26
2022/02/27 08:58:34;;;;;;;15.10;2.28;;;;;;;26.63;27.00;97902.81;4988144;28;20040;-27
2022/02/27 09:00:59;;;;;;;9.38;2.05;;;;;;;26.63;27.02;97905.44;5006603;28;20034;-27
2022/02/27 09:03:27;;;;;;;7.05;2.30;;;;;;;26.66;26.90;97905.31;5004949;28;20021;-27
2022/02/27 09:05:53;;;;;;;9.68;2.50;;;;;;;26.68;26.87;97898.22;5006325;28;20025;-31
2022/02/27 09:08:19;;;;;;;13.77;2.50;;;;;;;26.71;27.00;97908.63;5007958;28;20060;-29
2022/02/27 09:10:44;;;;;;;12.15;2.55;;;;;;;26.73;27.06;97901.53;5004208;28;20033;-33
2022/02/27 09:13:10;;;;;;;11.23;2.30;;;;;;;26.76;27.04;97903.19;5006617;28;20503;-28
2022/02/27 09:15:35;;;;;;;10.25;2.60;;;;;;;26.77;26.99;97903.13;5004501;28;20060;-28
2022/02/27 09:18:01;;;;;;;7.88;2.25;;;;;;;26.78;26.97;97894.34;4990577;28;20029;-30
2022/02/27 09:20:27;;;;;;;7.72;2.00;;;;;;;26.80;26.85;97903.00;5007223;28;20035;-31
2022/02/27 09:22:52;;;;;;;12.63;2.60;;;;;;;26.82;26.82;97900.31;5005075;28;20029;-29
2022/02/27 09:25:17;;;;;;;10.85;2.00;;;;;;;26.83;26.90;97897.63;5005539;28;20029;-28
2022/02/27 09:27:43;;;;;;;9.80;2.03;;;;;;;26.85;26.82;97893.16;5006954;28;20029;-28
2022/02/27 09:30:09;;;;;;;7.55;2.20;;;;;;;26.87;26.98;97896.59;5010573;28;20622;-28
2022/02/27 09:32:35;;;;;;;5.72;2.28;;;;;;;26.88;26.74;97895.66;5011929;28;20040;-28
2022/02/27 09:35:01;;;;;;;7.80;2.08;;;;;;;26.90;26.83;97886.84;5014037;28;20037;-27
2022/02/27 09:37:27;;;;;;;5.25;1.98;;;;;;;26.92;26.74;97885.88;4997088;28;20400;-28
2022/02/27 09:39:53;;;;;;;5.57;2.25;;;;;;;26.95;26.87;97884.91;5009542;28;20029;-29
2022/02/27 09:42:19;;;;;;;7.43;2.22;;;;;;;26.95;26.93;97884.91;5005794;28;20032;-29
2022/02/27 09:44:45;;;;;;;3.72;2.08;;;;;;;26.97;26.77;97877.84;5007510;28;20029;-28
2022/02/27 09:47:14;;;;;;;9.30;2.85;;;;;;;26.96;26.29;97876.97;5001690;28;20048;-28
2022/02/27 09:49:42;;;;;;;6.57;3.70;;;;;;;26.88;20.46;97879.88;5005014;28;20068;-29
2022/02/27 09:52:07;;;;;;;8.68;3.67;;;;;;;26.60;18.02;97881.00;5003912;28;20029;-28
2022/02/27 09:54:33;;;;;;;14.07;3.58;;;;;;;26.23;16.12;97882.34;5004984;28;20646;-29
2022/02/27 09:56:58;;;;;;;15.63;3.78;;;;;;;25.89;18.03;97887.09;5000735;28;20124;-28
2022/02/27 09:59:24;;;;;;;15.05;3.72;;;;;;;25.65;18.72;97891.44;5004622;28;20033;-28
2022/02/27 10:02:00;;;;;;;14.35;4.18;;;;;;;25.49;19.23;97891.97;5005251;28;20051;-28
2022/02/27 10:04:25;;;;;;;10.65;3.50;;;;;;;25.41;20.16;97889.63;5007450;28;20064;-27
2022/02/27 10:06:50;;;;;;;9.68;3.35;;;;;;;25.39;20.59;97890.53;5006460;28;20034;-28
2022/02/27 10:09:23;;;;;;;8.15;3.45;;;;;;;25.38;20.87;97894.09;5003615;28;20453;-28
2022/02/27 10:11:49;;;;;;;10.48;3.10;;;;;;;25.40;21.14;97889.66;5005526;28;20025;-30
2022/02/27 10:14:23;;;;;;;14.50;3.17;;;;;;;25.44;21.52;97888.66;4974740;28;20418;-29
2022/02/27 10:16:49;;;;;;;6.43;3.22;;;;;;;25.47;21.55;97883.28;5000266;28;20063;-27
2022/02/27 10:19:15;;;;;;;12.85;3.80;;;;;;;25.53;21.86;97893.56;5005959;28;20155;-27
2022/02/27 10:21:43;;;;;;;9.45;3.42;;;;;;;25.59;21.98;97881.19;5004287;28;20523;-27
2022/02/27 10:24:13;;;;;;;9.07;3.58;;;;;;;25.64;22.06;97889.75;5004028;28;20032;-29
2022/02/27 10:26:43;;;;;;;10.60;3.15;;;;;;;25.71;22.25;97893.88;5005229;28;20033;-32
2022/02/27 10:29:12;;;;;;;7.38;2.88;;;;;;;25.76;22.31;97888.44;5002849;28;20037;-28
2022/02/27 10:31:39;;;;;;;11.80;3.40;;;;;;;25.80;22.52;97896.16;5003061;28;20029;-28
2022/02/27 10:34:20;;;;;;;17.73;2.60;;;;;;;25.83;22.51;97884.69;5001767;28;20029;-28
2022/02/27 10:37:07;;;;;;;7.73;2.53;;;;;;;25.85;23.00;97882.03;5004130;28;20026;-29
2022/02/27 10:39:34;;;;;;;8.82;2.80;;;;;;;25.87;23.94;97885.44;5005755;28;20288;-32
2022/02/27 10:42:19;;;;;;;7.53;2.70;;;;;;;25.86;24.31;97867.97;4999148;28;20045;-31
2022/02/27 10:44:54;;;;;;;7.35;2.20;;;;;;;25.88;24.44;97868.75;5004724;28;20037;-28
2022/02/27 10:47:19;;;;;;;18.05;3.25;;;;;;;25.89;24.87;97868.72;4999032;28;20041;-29
2022/02/27 10:49:45;;;;;;;19.00;2.67;;;;;;;25.91;25.00;97858.16;4999200;28;20083;-28
2022/02/27 10:52:22;;;;;;;8.25;2.72;;;;;;;25.98;25.20;97854.41;5001526;28;20033;-29
2022/02/27 10:54:49;;;;;;;18.73;2.50;;;;;;;26.06;25.19;97854.97;5004900;28;20026;-29
2022/02/27 10:57:30;;;;;;;13.13;2.45;;;;;;;26.16;25.18;97849.38;5002663;28;20066;-28
2022/02/27 10:59:55;;;;;;;16.20;2.58;;;;;;;26.24;25.05;97855.19;5003065;28;20021;-32
2022/02/27 11:02:24;;;;;;;6.78;2.55;;;;;;;26.35;25.15;97850.41;5006395;28;20140;-33
2022/02/27 11:04:50;;;;;;;12.43;3.50;;;;;;;26.45;24.82;97850.03;5004356;28;20124;-29
2022/02/27 11:07:15;;;;;;;14.57;2.95;;;;;;;26.52;22.00;97841.00;4993649;28;20103;-29
2022/02/27 11:09:44;;;;;;;6.97;2.90;;;;;;;26.58;21.56;97839.91;4976008;28;20049;-30
2022/02/27 11:12:10;;;;;;;4.75;2.33;;;;;;;26.63;21.05;97837.09;4987343;28;20029;-28
2022/02/27 11:14:35;;;;;;;7.97;2.58;;;;;;;26.66;23.43;97837.81;5004213;28;20029;-30
2022/02/27 11:17:01;;;;;;;12.18;2.30;;;;;;;26.70;23.82;97838.56;5002809;28;20046;-31
2022/02/27 11:19:26;;;;;;;5.28;2.10;;;;;;;26.73;23.81;97833.16;4990076;28;20419;-29
2022/02/27 11:21:51;;;;;;;11.20;2.45;;;;;;;26.80;23.74;97829.38;4999162;28;20025;-28
2022/02/27 11:24:18;;;;;;;7.45;2.25;;;;;;;26.86;23.86;97828.28;4980078;28;20022;-29
2022/02/27 11:26:43;;;;;;;5.68;2.40;;;;;;;26.93;24.17;97824.44;4949293;28;20033;-30